createdAt,value
2022-10-23T00:01:40.676Z,100108.34
2022-10-23T00:04:29.515Z,100115.13
2022-10-23T00:07:18.130Z,100091.22
2022-10-23T00:10:07.459Z,100119.06
2022-10-23T00:12:57.223Z,100118.91
2022-10-23T00:15:45.671Z,100121.16
2022-10-23T00:18:34.434Z,100129.22
2022-10-23T00:21:23.490Z,100104.47
2022-10-23T00:24:11.974Z,100126.75
2022-10-23T00:27:00.409Z,100119.31
2022-10-23T00:29:50.218Z,100117.47
2022-10-23T00:32:39.237Z,100110.47
2022-10-23T00:35:27.676Z,100098.25
2022-10-23T00:38:16.071Z,100112.94
2022-10-23T00:41:05.548Z,100099.31
2022-10-23T00:44:03.124Z,100105.72
2022-10-23T00:46:52.877Z,100111.72
2022-10-23T00:49:42.778Z,100102.63
2022-10-23T00:52:31.878Z,100099.56
2022-10-23T00:55:22.053Z,100103.50
2022-10-23T00:58:10.744Z,100101.22
2022-10-23T01:00:59.307Z,100097.91
2022-10-23T01:03:49.176Z,100091.50
2022-10-23T01:06:39.289Z,100089.25
2022-10-23T01:09:30.400Z,99962.81
2022-10-23T01:12:25.201Z,100083.88
2022-10-23T01:15:17.904Z,100083.06
2022-10-23T01:18:10.379Z,100078.72
2022-10-23T01:21:02.683Z,100070.25
2022-10-23T01:24:09.324Z,100063.88
2022-10-23T01:27:13.404Z,100050.25
2022-10-23T01:30:06.684Z,100069.44
2022-10-23T01:32:57.464Z,100088.44
2022-10-23T01:35:49.027Z,100093.00
2022-10-23T01:38:41.408Z,100080.16
2022-10-23T01:41:31.397Z,100083.47
2022-10-23T01:44:25.109Z,100076.63
2022-10-23T01:47:15.847Z,100065.91
2022-10-23T01:50:07.231Z,100069.44
2022-10-23T01:52:55.684Z,100071.50
2022-10-23T01:55:44.415Z,100058.72
2022-10-23T01:58:34.007Z,100057.88
2022-10-23T02:01:26.824Z,100053.13
2022-10-23T02:04:19.575Z,100047.56
2022-10-23T02:07:08.203Z,100039.50
2022-10-23T02:09:56.676Z,100044.25
2022-10-23T02:12:50.439Z,100038.69
2022-10-23T02:15:42.570Z,100047.16
2022-10-23T02:18:38.896Z,100037.03
2022-10-23T02:21:30.657Z,100040.53
2022-10-23T02:24:21.640Z,100006.53
2022-10-23T02:27:13.558Z,100030.03
2022-10-23T02:30:06.188Z,100013.94
2022-10-23T02:32:55.984Z,100025.72
2022-10-23T02:35:46.464Z,100038.94
2022-10-23T02:38:37.461Z,100024.47
2022-10-23T02:41:36.817Z,100033.16
2022-10-23T02:44:37.472Z,100026.97
2022-10-23T02:47:36.122Z,100023.22
2022-10-23T02:50:30.404Z,100024.47
2022-10-23T02:53:26.560Z,100030.06
2022-10-23T02:56:19.225Z,100016.44
2022-10-23T02:59:12.291Z,100016.84
2022-10-23T03:02:04.966Z,100017.88
2022-10-23T03:04:54.440Z,100006.72
2022-10-23T03:07:43.400Z,100010.84
2022-10-23T03:10:33.425Z,100005.06
2022-10-23T03:13:21.973Z,100009.78
2022-10-23T03:16:10.412Z,100007.13
2022-10-23T03:18:58.918Z,100004.22
2022-10-23T03:21:47.338Z,99987.53
2022-10-23T03:24:35.749Z,100011.84
2022-10-23T03:27:25.668Z,100013.09
2022-10-23T03:30:14.327Z,100000.31
2022-10-23T03:33:02.760Z,100001.31
2022-10-23T03:35:51.284Z,100005.84
2022-10-23T03:38:39.701Z,100014.16
2022-10-23T03:41:28.186Z,100005.22
2022-10-23T03:44:18.061Z,100005.84
2022-10-23T03:47:06.550Z,100000.88
2022-10-23T03:49:54.944Z,99997.19
2022-10-23T03:52:43.779Z,99997.19
2022-10-23T03:55:32.467Z,99990.13
2022-10-23T03:58:20.903Z,99992.03
2022-10-23T04:01:10.842Z,100004.19
2022-10-23T04:03:59.299Z,99996.75
2022-10-23T04:06:47.700Z,99994.28
2022-10-23T04:09:36.239Z,99984.97
2022-10-23T04:12:24.696Z,99978.75
2022-10-23T04:15:13.099Z,99980.19
2022-10-23T04:18:02.900Z,99901.66
2022-10-23T04:20:52.361Z,99971.28
2022-10-23T04:23:41.012Z,99974.81
2022-10-23T04:26:29.454Z,99995.72
2022-10-23T04:29:17.901Z,100002.09
2022-10-23T04:32:07.951Z,99985.31
2022-10-23T04:34:57.764Z,99986.50
2022-10-23T04:37:46.343Z,99990.88
2022-10-23T04:40:34.795Z,99979.69
2022-10-23T04:43:23.233Z,99986.72
2022-10-23T04:46:11.669Z,99986.91
2022-10-23T04:49:00.099Z,99992.69
2022-10-23T04:51:49.939Z,99995.41
2022-10-23T04:54:38.562Z,99994.56
2022-10-23T04:57:27.032Z,99985.00
2022-10-23T05:00:16.625Z,99956.09
2022-10-23T05:03:05.186Z,99966.38
2022-10-23T05:05:54.964Z,99964.34
2022-10-23T05:08:44.738Z,99969.72
2022-10-23T05:11:33.131Z,99961.66
2022-10-23T05:14:22.982Z,99947.22
2022-10-23T05:17:14.681Z,99950.75
2022-10-23T05:20:06.137Z,99956.34
2022-10-23T05:22:56.519Z,99958.44
2022-10-23T05:25:46.380Z,99957.56
2022-10-23T05:28:34.835Z,99950.34
2022-10-23T05:31:25.911Z,99949.94
2022-10-23T05:34:15.238Z,99954.88
2022-10-23T05:37:04.063Z,99953.44
2022-10-23T05:39:52.882Z,99946.22
2022-10-23T05:42:43.106Z,99922.53
2022-10-23T05:45:31.762Z,99949.94
2022-10-23T05:48:34.166Z,99950.59
2022-10-23T05:51:23.444Z,99953.72
2022-10-23T05:54:11.849Z,99948.13
2022-10-23T05:57:00.269Z,99937.16
2022-10-23T05:59:50.059Z,99908.97
2022-10-23T06:02:38.541Z,99929.41
2022-10-23T06:05:27.174Z,99924.00
2022-10-23T06:08:15.587Z,99917.03
2022-10-23T06:11:08.526Z,99922.38
2022-10-23T06:16:51.632Z,99931.44
2022-10-23T06:19:40.075Z,99918.59
2022-10-23T06:22:28.493Z,99904.50
2022-10-23T06:25:16.905Z,99910.97
2022-10-23T06:28:05.356Z,99916.75
2022-10-23T06:30:53.817Z,99898.19
2022-10-23T06:33:43.774Z,99917.56
2022-10-23T06:36:32.220Z,99889.63
2022-10-23T06:39:22.037Z,99891.94
2022-10-23T06:42:10.675Z,99898.72
2022-10-23T06:45:01.143Z,99904.25
2022-10-23T06:47:51.836Z,99874.00
2022-10-23T06:50:41.983Z,99915.56
2022-10-23T06:53:30.394Z,99906.84
2022-10-23T06:56:18.778Z,99903.75
2022-10-23T06:59:10.317Z,99896.81
2022-10-23T07:01:58.769Z,99891.97
2022-10-23T07:04:47.153Z,99899.59
2022-10-23T07:07:36.919Z,99911.59
2022-10-23T07:10:25.415Z,99914.63
2022-10-23T07:13:13.858Z,99917.47
2022-10-23T07:16:11.131Z,99925.25
2022-10-23T07:19:01.228Z,99927.56
2022-10-23T07:21:49.664Z,99925.91
2022-10-23T07:24:40.156Z,99934.06
2022-10-23T07:27:28.605Z,99932.44
2022-10-23T07:30:17.317Z,99946.38
2022-10-23T07:33:05.724Z,99950.00
2022-10-23T07:35:54.391Z,99943.78
2022-10-23T07:38:43.035Z,99948.06
2022-10-23T07:41:32.876Z,99945.25
2022-10-23T07:44:24.298Z,99941.31
2022-10-23T07:47:15.616Z,99940.03
2022-10-23T07:50:04.396Z,99938.28
2022-10-23T07:52:52.857Z,99941.00
2022-10-23T07:55:41.491Z,99943.94
2022-10-23T07:58:31.501Z,99933.09
2022-10-23T08:01:21.836Z,99934.16
2022-10-23T08:04:10.861Z,99930.41
2022-10-23T08:07:01.041Z,99925.81
2022-10-23T08:09:49.510Z,99932.13
2022-10-23T08:12:38.796Z,99916.63
2022-10-23T08:15:28.572Z,99929.25
2022-10-23T08:18:17.616Z,99927.63
2022-10-23T08:21:06.259Z,99932.22
2022-10-23T08:23:55.701Z,99926.94
2022-10-23T08:26:44.110Z,99922.41
2022-10-23T08:29:32.551Z,99923.81
2022-10-23T08:32:22.311Z,99922.84
2022-10-23T08:35:11.168Z,99939.00
2022-10-23T08:37:59.616Z,99945.25
2022-10-23T08:40:49.247Z,99939.09
2022-10-23T08:43:40.499Z,99931.94
2022-10-23T08:46:31.388Z,99931.03
2022-10-23T08:49:29.191Z,99935.91
2022-10-23T08:52:21.645Z,99949.16
2022-10-23T08:55:17.523Z,99944.88
2022-10-23T08:58:10.828Z,99949.09
2022-10-23T09:00:59.456Z,99936.44
2022-10-23T09:03:47.987Z,99938.66
2022-10-23T09:06:40.721Z,99931.50
2022-10-23T09:09:48.744Z,99912.91
2022-10-23T09:12:37.703Z,99886.84
2022-10-23T09:15:29.360Z,99897.91
2022-10-23T09:18:18.383Z,99881.72
2022-10-23T09:21:10.367Z,99880.47
2022-10-23T09:24:00.144Z,99892.88
2022-10-23T09:26:51.126Z,99892.69
2022-10-23T09:29:48.851Z,99886.38
2022-10-23T09:32:39.026Z,99869.75
2022-10-23T09:35:28.944Z,99882.56
2022-10-23T09:38:27.786Z,99886.19
2022-10-23T09:41:20.953Z,99893.09
2022-10-23T09:44:19.024Z,99896.91
2022-10-23T09:47:11.165Z,99890.38
2022-10-23T09:49:59.630Z,99893.28
2022-10-23T09:52:52.372Z,99882.94
2022-10-23T09:55:40.894Z,99880.56
2022-10-23T09:58:36.372Z,99862.91
2022-10-23T10:01:26.083Z,99864.91
2022-10-23T10:04:14.882Z,99862.69
2022-10-23T10:07:05.805Z,99887.28
2022-10-23T10:09:55.604Z,99894.97
2022-10-23T10:12:50.682Z,99884.63
2022-10-23T10:15:46.697Z,99880.00
2022-10-23T10:18:40.321Z,99882.72
2022-10-23T10:21:30.071Z,99887.88
2022-10-23T10:24:21.570Z,99859.34
2022-10-23T10:27:18.342Z,99848.19
2022-10-23T10:30:12.266Z,99842.47
2022-10-23T10:33:06.470Z,99838.94
2022-10-23T10:36:00.847Z,99837.88
2022-10-23T10:38:51.760Z,99837.56
2022-10-23T10:41:46.315Z,99841.13
2022-10-23T10:44:54.773Z,99849.31
2022-10-23T10:47:51.961Z,99846.84
2022-10-23T10:50:45.138Z,99849.31
2022-10-23T10:53:44.375Z,99841.41
2022-10-23T10:56:34.985Z,99844.38
2022-10-23T10:59:26.357Z,99844.13
2022-10-23T11:02:25.007Z,99829.41
2022-10-23T11:05:22.985Z,99824.53
2022-10-23T11:08:16.060Z,99807.91
2022-10-23T11:11:08.975Z,99815.84
2022-10-23T11:13:57.593Z,99810.09
2022-10-23T11:16:48.095Z,99802.47
2022-10-23T11:19:38.943Z,99800.28
2022-10-23T11:22:31.204Z,99783.69
2022-10-23T11:25:47.086Z,99785.59
2022-10-23T11:28:48.692Z,99770.88
2022-10-23T11:31:39.917Z,99768.44
2022-10-23T11:34:48.666Z,99759.97
2022-10-23T11:37:37.087Z,99750.19
2022-10-23T11:40:27.003Z,99771.41
2022-10-23T11:43:27.260Z,99762.66
2022-10-23T11:46:16.656Z,99755.56
2022-10-23T11:49:06.240Z,99768.91
2022-10-23T11:52:01.388Z,99754.22
2022-10-23T11:54:49.895Z,99766.72
2022-10-23T11:57:39.712Z,99670.19
2022-10-23T12:00:31.100Z,99760.22
2022-10-23T12:03:22.792Z,99764.88
2022-10-23T12:06:22.809Z,99759.44
2022-10-23T12:09:25.048Z,99749.09
2022-10-23T12:12:26.737Z,99739.56
2022-10-23T12:15:22.425Z,99743.34
2022-10-23T12:18:15.800Z,99716.94
2022-10-23T12:21:06.649Z,99738.63
2022-10-23T12:24:10.324Z,99709.47
2022-10-23T12:27:07.017Z,99730.63
2022-10-23T12:30:05.188Z,99724.63
2022-10-23T12:33:07.487Z,99712.91
2022-10-23T12:36:28.061Z,99719.19
2022-10-23T12:39:29.455Z,99706.91
2022-10-23T12:42:22.437Z,99698.44
2022-10-23T12:45:18.495Z,99695.72
2022-10-23T12:48:16.689Z,99681.81
2022-10-23T12:51:05.151Z,99677.97
2022-10-23T12:53:53.717Z,99674.34
2022-10-23T12:56:43.278Z,99676.00
2022-10-23T12:59:38.332Z,99667.28
2022-10-23T13:02:29.328Z,99652.06
2022-10-23T13:05:20.982Z,99653.56
2022-10-23T13:08:10.878Z,99640.13
2022-10-23T13:10:59.537Z,99650.84
2022-10-23T13:13:49.312Z,99646.16
2022-10-23T13:16:37.733Z,99633.81
2022-10-23T13:19:27.419Z,99633.78
2022-10-23T13:22:21.046Z,99510.00
2022-10-23T13:25:25.888Z,99609.09
2022-10-23T13:28:35.793Z,99603.91
2022-10-23T13:31:30.756Z,99602.09
2022-10-23T13:34:30.372Z,99473.63
2022-10-23T13:37:25.935Z,99615.56
2022-10-23T13:40:23.405Z,99608.53
2022-10-23T13:43:15.726Z,99607.47
2022-10-23T13:46:04.353Z,99595.16
2022-10-23T13:48:53.101Z,99599.53
2022-10-23T13:51:43.286Z,99583.16
2022-10-23T13:54:33.059Z,99594.56
2022-10-23T13:57:21.499Z,99567.09
2022-10-23T14:00:11.394Z,99584.69
2022-10-23T14:02:59.865Z,99583.59
2022-10-23T14:05:48.299Z,99574.88
2022-10-23T14:08:36.722Z,99569.75
2022-10-23T14:11:26.485Z,99562.22
2022-10-23T14:14:14.888Z,99562.03
2022-10-23T14:17:03.312Z,99570.88
2022-10-23T14:19:51.760Z,99577.50
2022-10-23T14:22:40.197Z,99572.09
2022-10-23T14:25:28.676Z,99582.28
2022-10-23T14:28:18.475Z,99594.59
2022-10-23T14:31:08.106Z,99594.13
2022-10-23T14:33:58.785Z,99564.31
2022-10-23T14:36:56.889Z,99579.78
2022-10-23T14:39:55.795Z,99576.81
2022-10-23T14:42:44.536Z,99563.75
2022-10-23T14:45:34.580Z,99564.03
2022-10-23T14:48:23.030Z,99573.56
2022-10-23T14:51:18.829Z,99569.81
2022-10-23T14:54:08.677Z,99524.78
2022-10-23T14:56:57.361Z,99574.22
2022-10-23T14:59:45.809Z,99566.59
2022-10-23T15:02:35.611Z,99563.88
2022-10-23T15:05:24.057Z,99563.03
2022-10-23T15:08:12.468Z,99544.81
2022-10-23T15:11:01.466Z,99539.16
2022-10-23T15:13:49.927Z,99535.06
2022-10-23T15:16:41.396Z,99521.72
2022-10-23T15:19:31.520Z,99516.53
2022-10-23T15:22:19.972Z,99513.75
2022-10-23T15:25:11.296Z,99515.91
2022-10-23T15:28:01.653Z,99496.84
2022-10-23T15:30:50.095Z,99480.63
2022-10-23T15:33:38.870Z,99480.03
2022-10-23T15:36:28.643Z,99492.59
2022-10-23T15:39:18.818Z,99476.59
2022-10-23T15:42:07.541Z,99474.91
2022-10-23T15:44:56.112Z,99472.75
2022-10-23T15:47:44.838Z,99475.50
2022-10-23T15:50:34.128Z,99466.28
2022-10-23T15:53:23.952Z,99453.19
2022-10-23T15:56:12.371Z,99456.94
2022-10-23T15:59:00.889Z,99460.31
2022-10-23T16:01:50.941Z,99454.03
2022-10-23T16:04:39.503Z,99465.19
2022-10-23T16:07:27.984Z,99466.88
2022-10-23T16:10:17.824Z,99466.09
2022-10-23T16:13:06.268Z,99463.16
2022-10-23T16:15:54.948Z,99450.38
2022-10-23T16:18:44.573Z,99446.84
2022-10-23T16:21:35.144Z,99457.50
2022-10-23T16:24:23.642Z,99355.50
2022-10-23T16:27:13.431Z,99439.63
2022-10-23T16:30:02.005Z,99453.75
2022-10-23T16:32:50.772Z,99449.97
2022-10-23T16:35:39.695Z,99458.19
2022-10-23T16:38:28.175Z,99463.06
2022-10-23T16:41:16.783Z,99463.06
2022-10-23T16:44:07.030Z,99447.34
2022-10-23T16:46:55.592Z,99431.03
2022-10-23T16:49:44.152Z,99468.25
2022-10-23T16:52:33.269Z,99479.66
2022-10-23T16:55:21.682Z,99475.06
2022-10-23T16:58:10.204Z,99476.72
2022-10-23T17:01:02.184Z,99485.94
2022-10-23T17:03:52.468Z,99487.03
2022-10-23T17:06:41.125Z,99518.25
2022-10-23T17:09:31.262Z,99513.91
2022-10-23T17:12:19.731Z,99522.31
2022-10-23T17:15:09.885Z,99529.38
2022-10-23T17:17:59.660Z,99532.94
2022-10-23T17:20:56.889Z,99531.56
2022-10-23T17:23:45.972Z,99535.59
2022-10-23T17:26:35.037Z,99541.56
2022-10-23T17:29:23.480Z,99528.81
2022-10-23T17:32:11.967Z,99519.28
2022-10-23T17:35:01.783Z,99562.16
2022-10-23T17:37:50.475Z,99543.13
2022-10-23T17:40:39.844Z,99582.50
2022-10-23T17:43:28.315Z,99659.00
2022-10-23T17:46:18.563Z,99723.38
2022-10-23T17:49:07.149Z,99760.78
2022-10-23T17:51:58.341Z,99769.97
2022-10-23T17:54:46.859Z,99781.00
2022-10-23T17:57:35.435Z,99765.78
2022-10-23T18:00:24.167Z,99757.97
2022-10-23T18:03:15.470Z,99742.50
2022-10-23T18:06:10.496Z,99750.06
2022-10-23T18:09:01.771Z,99760.88
2022-10-23T18:11:50.741Z,99737.22
2022-10-23T18:14:39.275Z,99728.00
2022-10-23T18:17:27.856Z,99711.72
2022-10-23T18:20:16.768Z,99673.41
2022-10-23T18:23:05.247Z,99626.03
2022-10-23T18:25:55.293Z,99682.66
2022-10-23T18:28:44.067Z,99658.50
2022-10-23T18:31:32.677Z,99613.59
2022-10-23T18:34:23.243Z,99625.38
2022-10-23T18:37:11.795Z,99681.19
2022-10-23T18:40:00.262Z,99695.84
2022-10-23T18:42:50.467Z,99737.03
2022-10-23T18:45:42.795Z,99780.38
2022-10-23T18:48:31.531Z,99724.75
2022-10-23T18:51:21.847Z,99717.38
2022-10-23T18:54:13.980Z,99683.19
2022-10-23T18:57:02.423Z,99657.38
2022-10-23T18:59:53.166Z,99651.47
2022-10-23T19:02:41.671Z,99682.59
2022-10-23T19:05:30.178Z,99668.16
2022-10-23T19:08:18.882Z,99697.63
2022-10-23T19:11:08.028Z,99697.31
2022-10-23T19:13:56.602Z,99679.34
2022-10-23T19:16:53.306Z,99668.88
2022-10-23T19:19:43.747Z,99670.59
2022-10-23T19:22:32.761Z,99617.94
2022-10-23T19:25:25.223Z,99577.69
2022-10-23T19:28:13.731Z,99592.91
2022-10-23T19:31:02.324Z,99606.06
2022-10-23T19:33:52.162Z,99612.78
2022-10-23T19:36:40.642Z,99610.56
2022-10-23T19:39:29.245Z,99607.28
2022-10-23T19:42:17.777Z,99599.03
2022-10-23T19:45:07.508Z,99611.13
2022-10-23T19:47:56.111Z,99616.81
2022-10-23T19:50:45.999Z,99616.88
2022-10-23T19:53:34.480Z,99623.66
2022-10-23T19:56:23.292Z,99609.31
2022-10-23T19:59:12.919Z,99595.81
2022-10-23T20:02:01.974Z,99622.78
2022-10-23T20:04:50.583Z,99602.66
2022-10-23T20:07:40.367Z,99624.06
2022-10-23T20:10:28.835Z,99611.28
2022-10-23T20:13:20.715Z,99633.19
2022-10-23T20:16:09.537Z,99629.66
2022-10-23T20:18:58.732Z,99625.91
2022-10-23T20:21:48.956Z,99636.66
2022-10-23T20:24:42.179Z,99619.50
2022-10-23T20:27:30.649Z,99635.47
2022-10-23T20:30:19.150Z,99627.00
2022-10-23T20:33:07.724Z,99626.41
2022-10-23T20:38:49.501Z,99635.63
2022-10-23T20:41:39.502Z,99640.91
2022-10-23T20:44:27.992Z,99644.13
2022-10-23T20:47:16.461Z,99638.47
2022-10-23T20:50:05.338Z,99639.19
2022-10-23T20:52:53.826Z,99627.03
2022-10-23T20:55:43.337Z,99638.59
2022-10-23T20:58:33.143Z,99648.09
2022-10-23T21:01:21.719Z,99643.75
2022-10-23T21:04:12.529Z,99637.78
2022-10-23T21:07:16.420Z,99644.88
2022-10-23T21:10:06.207Z,99650.25
2022-10-23T21:12:54.657Z,99637.09
2022-10-23T21:15:44.448Z,99645.91
2022-10-23T21:18:45.458Z,99650.25
2022-10-23T21:21:35.758Z,99652.63
2022-10-23T21:24:24.976Z,99650.38
2022-10-23T21:27:15.078Z,99662.88
2022-10-23T21:30:03.542Z,99660.69
2022-10-23T21:32:53.328Z,99656.03
2022-10-23T21:35:52.219Z,99647.59
2022-10-23T21:38:47.735Z,99649.56
2022-10-23T21:41:36.166Z,99648.56
2022-10-23T21:44:24.628Z,99637.22
2022-10-23T21:47:13.052Z,99632.00
2022-10-23T21:50:02.831Z,99642.00
2022-10-23T21:52:52.862Z,99640.81
2022-10-23T21:55:41.349Z,99626.97
2022-10-23T21:58:29.850Z,99631.28
2022-10-23T22:01:18.461Z,99630.75
2022-10-23T22:04:07.314Z,99637.44
2022-10-23T22:06:59.280Z,99644.28
2022-10-23T22:09:47.900Z,99664.19
2022-10-23T22:12:36.420Z,99653.38
2022-10-23T22:15:24.897Z,99649.94
2022-10-23T22:18:13.344Z,99644.53
2022-10-23T22:21:02.078Z,99636.53
2022-10-23T22:23:54.601Z,99633.16
2022-10-23T22:26:45.243Z,99649.38
2022-10-23T22:29:33.750Z,99634.69
2022-10-23T22:35:15.615Z,99633.59
2022-10-23T22:38:04.039Z,99631.88
2022-10-23T22:40:53.829Z,99635.19
2022-10-23T22:43:42.267Z,99643.34
2022-10-23T22:46:31.056Z,99624.13
2022-10-23T22:49:19.493Z,99632.25
2022-10-23T22:52:07.896Z,99654.25
2022-10-23T22:54:56.331Z,99641.66
2022-10-23T22:57:46.411Z,99651.56
2022-10-23T23:00:35.504Z,99655.00
2022-10-23T23:03:24.908Z,99659.75
2022-10-23T23:06:13.564Z,99653.44
2022-10-23T23:09:02.086Z,99653.91
2022-10-23T23:11:52.545Z,99647.53
2022-10-23T23:14:43.392Z,99658.91
2022-10-23T23:17:31.841Z,99659.88
2022-10-23T23:20:20.366Z,99663.56
2022-10-23T23:23:08.852Z,99663.22
2022-10-23T23:25:57.296Z,99668.06
2022-10-23T23:28:47.060Z,99661.75
2022-10-23T23:31:36.821Z,99678.69
2022-10-23T23:34:25.314Z,99685.47
2022-10-23T23:37:13.716Z,99688.91
2022-10-23T23:40:02.107Z,99689.63
2022-10-23T23:42:50.513Z,99688.53
2022-10-23T23:45:38.917Z,99690.34
2022-10-23T23:48:28.755Z,99694.25
2022-10-23T23:51:17.592Z,99696.41
2022-10-23T23:54:06.048Z,99700.25
2022-10-23T23:56:57.296Z,99689.25
2022-10-23T23:59:45.710Z,99697.19
